PWSweather.com
Personal Weather Stations
Station Observations
KMICHEBO10
Cordwood Point, Lake Huron, Cheboygan, MI 49721

Cordwood Point, Lake HuronCheboygan, MI 49721

Lat: 45.663372, Lon: -84.3327789

Elevation: 598

Station Type: Davis Vantage Pro2 Wireless

https://www.lakehuronweather.org

Latest ConditionsUpdated 7:40:00 PM EDT Monday, Oct 21, 2019
Currently Today's Max Today's Min Today's Average
Temperature 52.9°F11.6°C 53.8°F12.1°C 42.6°F5.9°C 49.5°F9.7°C
Dew Point 51.3°F10.7°C 51.4°F10.8°C 41.6°F5.3°C 47.9°F8.8°C
Winds 1.2 mph ESE1.9 kmh ESE 5.8 mph -9.3 kmh - - 1.6 mph 2.6 kmh
Wind Gusts 4.6 mph7.4 kmh 12.7 mph20.4 kmh - -
Humidity 94% 98% 88% 94%
Pressure 29.55 in1000.7 mb 30.00 in1015.9 mb 29.55 in1000.7 mb -
Precipitation - 0.11 in2.8 mm - -
Hour Temp Dew Point Humidity Winds Wind Gusts Pressure Precip Precip Rate Daily Precip Total
07:40 PM 52.9°F11.6°C 51.3°F10.7°C 94% 1.2 mph ESE1.9 kmh ESE 4.6 mph7.4 kmh 29.55 in1000.7 mb - 0.00 in0.0 mm 0.11 in2.8 mm
07:30 PM 53.0°F11.7°C 51.3°F10.7°C 94% 4.6 mph SE7.4 kmh SE 4.6 mph7.4 kmh 29.56 in1001.0 mb - 0.00 in0.0 mm 0.11 in2.8 mm
07:20 PM 53.0°F11.7°C 51.3°F10.7°C 94% 2.3 mph SE3.7 kmh SE 4.6 mph7.4 kmh 29.56 in1001.0 mb - 0.00 in0.0 mm 0.11 in2.8 mm
07:10 PM 52.9°F11.6°C 51.2°F10.7°C 94% 5.8 mph SE9.3 kmh SE 12.7 mph20.4 kmh 29.55 in1000.7 mb - 0.00 in0.0 mm 0.11 in2.8 mm
07:00 PM 52.8°F11.6°C 51.4°F10.8°C 95% 3.5 mph SSE5.6 kmh SSE 6.9 mph11.1 kmh 29.55 in1000.7 mb - 0.00 in0.0 mm 0.11 in2.8 mm
06:50 PM 52.8°F11.6°C 51.4°F10.8°C 95% 3.5 mph SE5.6 kmh SE 4.6 mph7.4 kmh 29.55 in1000.7 mb - 0.01 in0.3 mm 0.11 in2.8 mm
06:40 PM 52.7°F11.5°C 51.4°F10.8°C 95% 2.3 mph SE3.7 kmh SE 4.6 mph7.4 kmh 29.57 in1001.4 mb - 0.00 in0.0 mm 0.10 in2.5 mm
06:30 PM 52.7°F11.5°C 51.3°F10.7°C 95% 2.3 mph N3.7 kmh N 5.8 mph9.3 kmh 29.59 in1002.0 mb - 0.01 in0.3 mm 0.10 in2.5 mm
06:20 PM 52.6°F11.4°C 51.2°F10.7°C 95% 2.3 mph SE3.7 kmh SE 4.6 mph7.4 kmh 29.58 in1001.7 mb - 0.01 in0.3 mm 0.09 in2.3 mm
06:10 PM 52.6°F11.4°C 51.2°F10.7°C 95% 3.5 mph SE5.6 kmh SE 9.2 mph14.8 kmh 29.58 in1001.7 mb - 0.00 in0.0 mm 0.08 in2.0 mm
06:00 PM 52.6°F11.4°C 51.2°F10.7°C 95% 2.3 mph ESE3.7 kmh ESE 4.6 mph7.4 kmh 29.58 in1001.7 mb - 0.00 in0.0 mm 0.08 in2.0 mm
05:50 PM 52.6°F11.4°C 51.2°F10.7°C 95% 3.5 mph SE5.6 kmh SE 4.6 mph7.4 kmh 29.59 in1002.0 mb - 0.01 in0.3 mm 0.08 in2.0 mm
05:40 PM 52.6°F11.4°C 51.2°F10.7°C 95% 2.3 mph SE3.7 kmh SE 8.1 mph13.0 kmh 29.59 in1002.0 mb - 0.00 in0.0 mm 0.07 in1.8 mm
05:30 PM 52.6°F11.4°C 51.2°F10.7°C 95% 3.5 mph S5.6 kmh S 4.6 mph7.4 kmh 29.60 in1002.4 mb - 0.01 in0.3 mm 0.07 in1.8 mm
05:20 PM 52.7°F11.5°C 51.0°F10.6°C 94% 3.5 mph SE5.6 kmh SE 5.8 mph9.3 kmh 29.59 in1002.0 mb - 0.02 in0.5 mm 0.06 in1.5 mm
05:10 PM 52.7°F11.5°C 51.0°F10.6°C 94% 2.3 mph ESE3.7 kmh ESE 8.1 mph13.0 kmh 29.61 in1002.7 mb - 0.00 in0.0 mm 0.04 in1.0 mm
05:00 PM 52.7°F11.5°C 51.0°F10.6°C 94% 2.3 mph S3.7 kmh S 3.5 mph5.6 kmh 29.62 in1003.0 mb - 0.00 in0.0 mm 0.04 in1.0 mm
04:50 PM 52.6°F11.4°C 50.9°F10.5°C 94% 2.3 mph SE3.7 kmh SE 5.8 mph9.3 kmh 29.61 in1002.7 mb - 0.00 in0.0 mm 0.04 in1.0 mm
04:40 PM 52.5°F11.4°C 50.8°F10.4°C 94% 3.5 mph SE5.6 kmh SE 9.2 mph14.8 kmh 29.60 in1002.4 mb - 0.01 in0.3 mm 0.04 in1.0 mm
04:30 PM 52.5°F11.4°C 50.8°F10.4°C 94% 2.3 mph SE3.7 kmh SE 8.1 mph13.0 kmh 29.59 in1002.0 mb - 0.00 in0.0 mm 0.03 in0.8 mm
04:20 PM 52.5°F11.4°C 50.8°F10.4°C 94% 2.3 mph E3.7 kmh E 4.6 mph7.4 kmh 29.62 in1003.0 mb - 0.00 in0.0 mm 0.03 in0.8 mm
04:10 PM 52.5°F11.4°C 50.8°F10.4°C 94% 2.3 mph E3.7 kmh E 6.9 mph11.1 kmh 29.64 in1003.7 mb - 0.01 in0.3 mm 0.03 in0.8 mm
04:00 PM 52.8°F11.6°C 50.8°F10.4°C 93% 1.2 mph ESE1.9 kmh ESE 2.3 mph3.7 kmh 29.65 in1004.1 mb - 0.00 in0.0 mm 0.02 in0.5 mm
03:50 PM 53.1°F11.7°C 50.8°F10.4°C 92% 1.2 mph S1.9 kmh S 3.5 mph5.6 kmh 29.67 in1004.7 mb - 0.01 in0.3 mm 0.02 in0.5 mm
03:40 PM 53.5°F11.9°C 51.0°F10.6°C 91% 3.5 mph ESE5.6 kmh ESE 6.9 mph11.1 kmh 29.68 in1005.1 mb - 0.00 in0.0 mm 0.01 in0.3 mm
03:30 PM 53.8°F12.1°C 50.6°F10.3°C 89% 2.3 mph SSE3.7 kmh SSE 9.2 mph14.8 kmh 29.68 in1005.1 mb - 0.00 in0.0 mm 0.01 in0.3 mm
03:20 PM 53.7°F12.1°C 50.6°F10.3°C 89% 2.3 mph E3.7 kmh E 3.5 mph5.6 kmh 29.68 in1005.1 mb - 0.00 in0.0 mm 0.01 in0.3 mm
03:10 PM 53.7°F12.1°C 50.2°F10.1°C 88% 2.3 mph SE3.7 kmh SE 3.5 mph5.6 kmh 29.68 in1005.1 mb - 0.00 in0.0 mm 0.01 in0.3 mm
03:00 PM 53.6°F12.0°C 50.1°F10.1°C 88% 4.6 mph SE7.4 kmh SE 8.1 mph13.0 kmh 29.69 in1005.4 mb - 0.00 in0.0 mm 0.01 in0.3 mm
02:50 PM 53.6°F12.0°C 50.1°F10.1°C 88% 3.5 mph ESE5.6 kmh ESE 5.8 mph9.3 kmh 29.70 in1005.8 mb - 0.00 in0.0 mm 0.01 in0.3 mm
02:40 PM 53.6°F12.0°C 50.4°F10.2°C 89% 2.3 mph SE3.7 kmh SE 5.8 mph9.3 kmh 29.70 in1005.8 mb - 0.00 in0.0 mm 0.01 in0.3 mm
02:30 PM 53.6°F12.0°C 50.4°F10.2°C 89% 2.3 mph SE3.7 kmh SE 8.1 mph13.0 kmh 29.71 in1006.1 mb - 0.00 in0.0 mm 0.01 in0.3 mm
02:20 PM 53.6°F12.0°C 50.7°F10.4°C 90% 5.8 mph ESE9.3 kmh ESE 11.5 mph18.5 kmh 29.72 in1006.4 mb - 0.00 in0.0 mm 0.01 in0.3 mm
02:10 PM 53.6°F12.0°C 50.7°F10.4°C 90% 3.5 mph ESE5.6 kmh ESE 4.6 mph7.4 kmh 29.73 in1006.8 mb - 0.00 in0.0 mm 0.01 in0.3 mm
02:00 PM 53.6°F12.0°C 50.7°F10.4°C 90% 5.8 mph SE9.3 kmh SE 6.9 mph11.1 kmh 29.74 in1007.1 mb - 0.00 in0.0 mm 0.01 in0.3 mm
01:50 PM 53.5°F11.9°C 50.6°F10.3°C 90% 3.5 mph SSE5.6 kmh SSE 8.1 mph13.0 kmh 29.75 in1007.5 mb - 0.00 in0.0 mm 0.01 in0.3 mm
01:40 PM 53.5°F11.9°C 50.6°F10.3°C 90% 1.2 mph SE1.9 kmh SE 3.5 mph5.6 kmh 29.77 in1008.1 mb - 0.00 in0.0 mm 0.01 in0.3 mm
01:30 PM 53.5°F11.9°C 50.6°F10.3°C 90% 3.5 mph E5.6 kmh E 4.6 mph7.4 kmh 29.78 in1008.5 mb - 0.00 in0.0 mm 0.01 in0.3 mm
01:20 PM 53.5°F11.9°C 50.6°F10.3°C 90% 2.3 mph SE3.7 kmh SE 3.5 mph5.6 kmh 29.78 in1008.5 mb - 0.00 in0.0 mm 0.01 in0.3 mm
01:10 PM 53.4°F11.9°C 50.5°F10.3°C 90% 4.6 mph S7.4 kmh S 9.2 mph14.8 kmh 29.79 in1008.8 mb - 0.00 in0.0 mm 0.01 in0.3 mm
01:00 PM 53.3°F11.8°C 50.4°F10.2°C 90% 2.3 mph SE3.7 kmh SE 4.6 mph7.4 kmh 29.80 in1009.1 mb - 0.00 in0.0 mm 0.01 in0.3 mm
12:50 PM 53.2°F11.8°C 50.3°F10.2°C 90% 2.3 mph SE3.7 kmh SE 2.3 mph3.7 kmh 29.80 in1009.1 mb - 0.00 in0.0 mm 0.01 in0.3 mm
12:40 PM 53.2°F11.8°C 50.6°F10.3°C 91% 2.3 mph ESE3.7 kmh ESE 3.5 mph5.6 kmh 29.82 in1009.8 mb - 0.00 in0.0 mm 0.01 in0.3 mm
12:30 PM 53.1°F11.7°C 50.3°F10.2°C 90% 2.3 mph E3.7 kmh E 3.5 mph5.6 kmh 29.83 in1010.2 mb - 0.00 in0.0 mm 0.01 in0.3 mm
12:20 PM 53.1°F11.7°C 50.2°F10.1°C 90% 1.2 mph ESE1.9 kmh ESE 4.6 mph7.4 kmh 29.84 in1010.5 mb - 0.00 in0.0 mm 0.01 in0.3 mm
12:10 PM 53.1°F11.7°C 50.2°F10.1°C 90% 2.3 mph SSE3.7 kmh SSE 11.5 mph18.5 kmh 29.85 in1010.8 mb - 0.00 in0.0 mm 0.01 in0.3 mm
12:00 PM 53.2°F11.8°C 50.3°F10.2°C 90% 3.5 mph SE5.6 kmh SE 10.4 mph16.7 kmh 29.86 in1011.2 mb - 0.00 in0.0 mm 0.01 in0.3 mm
11:50 AM 53.1°F11.7°C 50.3°F10.2°C 90% 2.3 mph SE3.7 kmh SE 9.2 mph14.8 kmh 29.86 in1011.2 mb - 0.00 in0.0 mm 0.01 in0.3 mm
11:40 AM 53.0°F11.7°C 50.1°F10.1°C 90% 3.5 mph ESE5.6 kmh ESE 11.5 mph18.5 kmh 29.87 in1011.5 mb - 0.00 in0.0 mm 0.01 in0.3 mm
11:30 AM 52.9°F11.6°C 50.0°F10.0°C 90% 2.3 mph NNE3.7 kmh NNE 8.1 mph13.0 kmh 29.87 in1011.5 mb - 0.00 in0.0 mm 0.01 in0.3 mm
11:20 AM 52.7°F11.5°C 49.8°F9.9°C 90% 2.3 mph SE3.7 kmh SE 4.6 mph7.4 kmh 29.88 in1011.9 mb - 0.00 in0.0 mm 0.01 in0.3 mm
11:10 AM 52.6°F11.4°C 49.8°F9.9°C 90% 2.3 mph SE3.7 kmh SE 5.8 mph9.3 kmh 29.88 in1011.9 mb - 0.00 in0.0 mm 0.01 in0.3 mm
11:00 AM 52.5°F11.4°C 49.9°F9.9°C 91% 3.5 mph ESE5.6 kmh ESE 6.9 mph11.1 kmh 29.87 in1011.5 mb - 0.00 in0.0 mm 0.01 in0.3 mm
10:50 AM 52.3°F11.3°C 49.8°F9.9°C 91% 2.3 mph SE3.7 kmh SE 4.6 mph7.4 kmh 29.87 in1011.5 mb - 0.00 in0.0 mm 0.01 in0.3 mm
10:40 AM 52.1°F11.2°C 49.8°F9.9°C 92% 3.5 mph E5.6 kmh E 8.1 mph13.0 kmh 29.88 in1011.9 mb - 0.00 in0.0 mm 0.01 in0.3 mm
10:30 AM 51.9°F11.1°C 49.6°F9.8°C 92% 3.5 mph E5.6 kmh E 5.8 mph9.3 kmh 29.88 in1011.9 mb - 0.00 in0.0 mm 0.01 in0.3 mm
10:20 AM 51.6°F10.9°C 49.6°F9.8°C 93% 3.5 mph SE5.6 kmh SE 5.8 mph9.3 kmh 29.90 in1012.5 mb - 0.00 in0.0 mm 0.01 in0.3 mm
10:10 AM 51.4°F10.8°C 49.8°F9.9°C 94% 2.3 mph ESE3.7 kmh ESE 5.8 mph9.3 kmh 29.91 in1012.9 mb - 0.00 in0.0 mm 0.01 in0.3 mm
10:00 AM 51.4°F10.8°C 50.0°F10.0°C 95% 2.3 mph ESE3.7 kmh ESE 3.5 mph5.6 kmh 29.90 in1012.5 mb - 0.00 in0.0 mm 0.01 in0.3 mm
09:50 AM 51.2°F10.7°C 50.1°F10.1°C 96% 3.5 mph SE5.6 kmh SE 4.6 mph7.4 kmh 29.91 in1012.9 mb - 0.00 in0.0 mm 0.01 in0.3 mm
09:40 AM 51.1°F10.6°C 50.0°F10.0°C 96% 1.2 mph ESE1.9 kmh ESE 3.5 mph5.6 kmh 29.92 in1013.2 mb - 0.00 in0.0 mm 0.01 in0.3 mm
09:30 AM 51.1°F10.6°C 50.0°F10.0°C 96% 1.2 mph SE1.9 kmh SE 3.5 mph5.6 kmh 29.91 in1012.9 mb - 0.00 in0.0 mm 0.01 in0.3 mm
09:20 AM 50.9°F10.5°C 50.1°F10.1°C 97% 2.3 mph SSE3.7 kmh SSE 9.2 mph14.8 kmh 29.92 in1013.2 mb - 0.00 in0.0 mm 0.01 in0.3 mm
09:10 AM 50.8°F10.4°C 50.0°F10.0°C 97% 2.3 mph ESE3.7 kmh ESE 5.8 mph9.3 kmh 29.92 in1013.2 mb - 0.00 in0.0 mm 0.01 in0.3 mm
09:00 AM 50.7°F10.4°C 50.2°F10.1°C 98% 2.3 mph ESE3.7 kmh ESE 3.5 mph5.6 kmh 29.93 in1013.5 mb - 0.00 in0.0 mm 0.01 in0.3 mm
08:50 AM 50.5°F10.3°C 50.0°F10.0°C 98% 1.2 mph E1.9 kmh E 4.6 mph7.4 kmh 29.93 in1013.5 mb - 0.00 in0.0 mm 0.01 in0.3 mm
08:40 AM 50.4°F10.2°C 49.9°F9.9°C 98% 2.3 mph SE3.7 kmh SE 4.6 mph7.4 kmh 29.93 in1013.5 mb - 0.00 in0.0 mm 0.01 in0.3 mm
08:30 AM 50.2°F10.1°C 49.7°F9.8°C 98% 1.2 mph SSE1.9 kmh SSE 6.9 mph11.1 kmh 29.93 in1013.5 mb - 0.00 in0.0 mm 0.01 in0.3 mm
08:20 AM 50.0°F10.0°C 49.5°F9.7°C 98% 1.2 mph ESE1.9 kmh ESE 10.4 mph16.7 kmh 29.94 in1013.9 mb - 0.00 in0.0 mm 0.01 in0.3 mm
08:10 AM 49.7°F9.8°C 49.2°F9.6°C 98% 1.2 mph SE1.9 kmh SE 1.2 mph1.9 kmh 29.95 in1014.2 mb - 0.00 in0.0 mm 0.01 in0.3 mm
08:00 AM 49.2°F9.6°C 48.7°F9.3°C 98% 1.2 mph SE1.9 kmh SE 4.6 mph7.4 kmh 29.95 in1014.2 mb - 0.01 in0.3 mm 0.01 in0.3 mm
07:50 AM 48.4°F9.1°C 47.9°F8.8°C 98% Calm Calm 2.3 mph3.7 kmh 29.96 in1014.6 mb - 0.00 in0.0 mm 0.00 in0.0 mm
07:40 AM 47.6°F8.7°C 47.1°F8.4°C 98% Calm Calm -- 29.96 in1014.6 mb - 0.00 in0.0 mm 0.00 in0.0 mm
07:30 AM 47.2°F8.4°C 46.4°F8.0°C 97% Calm Calm 2.3 mph3.7 kmh 29.95 in1014.2 mb - 0.00 in0.0 mm 0.00 in0.0 mm
07:20 AM 47.0°F8.3°C 46.2°F7.9°C 97% Calm Calm -- 29.96 in1014.6 mb - 0.00 in0.0 mm 0.00 in0.0 mm
07:10 AM 46.9°F8.3°C 46.3°F7.9°C 98% Calm Calm -- 29.96 in1014.6 mb - 0.00 in0.0 mm 0.00 in0.0 mm
07:00 AM 46.7°F8.2°C 45.8°F7.7°C 97% Calm Calm -- 29.96 in1014.6 mb - 0.00 in0.0 mm 0.00 in0.0 mm
06:50 AM 46.3°F7.9°C 45.5°F7.5°C 97% Calm Calm -- 29.96 in1014.6 mb - 0.00 in0.0 mm 0.00 in0.0 mm
06:40 AM 45.8°F7.7°C 45.0°F7.2°C 97% Calm Calm -- 29.96 in1014.6 mb - 0.00 in0.0 mm 0.00 in0.0 mm
06:30 AM 45.6°F7.6°C 44.8°F7.1°C 97% Calm Calm -- 29.98 in1015.2 mb - 0.00 in0.0 mm 0.00 in0.0 mm
06:20 AM 45.9°F7.7°C 45.1°F7.3°C 97% Calm Calm -- 29.99 in1015.6 mb - 0.00 in0.0 mm 0.00 in0.0 mm
06:10 AM 46.1°F7.8°C 45.3°F7.4°C 97% Calm Calm -- 29.99 in1015.6 mb - 0.00 in0.0 mm 0.00 in0.0 mm
06:00 AM 46.0°F7.8°C 45.2°F7.3°C 97% Calm Calm -- 29.99 in1015.6 mb - 0.00 in0.0 mm 0.00 in0.0 mm
05:50 AM 46.0°F7.8°C 45.2°F7.3°C 97% Calm Calm -- 29.98 in1015.2 mb - 0.00 in0.0 mm 0.00 in0.0 mm
05:40 AM 45.8°F7.7°C 45.0°F7.2°C 97% Calm Calm -- 29.97 in1014.9 mb - 0.00 in0.0 mm 0.00 in0.0 mm
05:30 AM 45.3°F7.4°C 44.5°F6.9°C 97% Calm Calm -- 29.97 in1014.9 mb - 0.00 in0.0 mm 0.00 in0.0 mm
05:20 AM 45.2°F7.3°C 44.4°F6.9°C 97% Calm Calm -- 29.97 in1014.9 mb - 0.00 in0.0 mm 0.00 in0.0 mm
05:10 AM 45.3°F7.4°C 44.5°F6.9°C 97% Calm Calm -- 29.98 in1015.2 mb - 0.00 in0.0 mm 0.00 in0.0 mm
05:00 AM 45.3°F7.4°C 44.5°F6.9°C 97% Calm Calm -- 29.98 in1015.2 mb - 0.00 in0.0 mm 0.00 in0.0 mm
04:50 AM 45.1°F7.3°C 44.3°F6.8°C 97% Calm Calm -- 29.98 in1015.2 mb - 0.00 in0.0 mm 0.00 in0.0 mm
04:40 AM 44.9°F7.2°C 44.1°F6.7°C 97% Calm Calm -- 29.96 in1014.6 mb - 0.00 in0.0 mm 0.00 in0.0 mm
04:30 AM 45.1°F7.3°C 44.3°F6.8°C 97% Calm Calm -- 29.96 in1014.6 mb - 0.00 in0.0 mm 0.00 in0.0 mm
04:20 AM 45.3°F7.4°C 44.5°F6.9°C 97% Calm Calm -- 29.98 in1015.2 mb - 0.00 in0.0 mm 0.00 in0.0 mm
04:10 AM 45.4°F7.4°C 44.6°F7.0°C 97% Calm Calm -- 29.99 in1015.6 mb - 0.00 in0.0 mm 0.00 in0.0 mm
04:00 AM 45.4°F7.4°C 44.6°F7.0°C 97% Calm Calm -- 29.99 in1015.6 mb - 0.00 in0.0 mm 0.00 in0.0 mm
03:50 AM 45.1°F7.3°C 44.3°F6.8°C 97% Calm Calm -- 30.00 in1015.9 mb - 0.00 in0.0 mm 0.00 in0.0 mm
03:40 AM 45.1°F7.3°C 44.3°F6.8°C 97% Calm Calm -- 30.00 in1015.9 mb - 0.00 in0.0 mm 0.00 in0.0 mm
03:30 AM 45.0°F7.2°C 44.2°F6.8°C 97% Calm Calm -- 30.00 in1015.9 mb - 0.00 in0.0 mm 0.00 in0.0 mm
03:20 AM 44.8°F7.1°C 44.0°F6.7°C 97% Calm Calm -- 30.00 in1015.9 mb - 0.00 in0.0 mm 0.00 in0.0 mm
03:10 AM 44.2°F6.8°C 43.4°F6.3°C 97% Calm Calm -- 29.99 in1015.6 mb - 0.00 in0.0 mm 0.00 in0.0 mm
03:00 AM 44.1°F6.7°C 43.0°F6.1°C 96% Calm Calm -- 30.00 in1015.9 mb - 0.00 in0.0 mm 0.00 in0.0 mm
02:50 AM 44.1°F6.7°C 43.0°F6.1°C 96% Calm Calm -- 30.00 in1015.9 mb - 0.00 in0.0 mm 0.00 in0.0 mm
02:40 AM 44.2°F6.8°C 43.1°F6.2°C 96% Calm Calm -- 29.99 in1015.6 mb - 0.00 in0.0 mm 0.00 in0.0 mm
02:30 AM 44.2°F6.8°C 43.1°F6.2°C 96% Calm Calm -- 29.99 in1015.6 mb - 0.00 in0.0 mm 0.00 in0.0 mm
02:20 AM 44.2°F6.8°C 43.1°F6.2°C 96% Calm Calm -- 29.99 in1015.6 mb - 0.00 in0.0 mm 0.00 in0.0 mm
02:10 AM 44.2°F6.8°C 43.2°F6.2°C 96% Calm Calm -- 29.99 in1015.6 mb - 0.00 in0.0 mm 0.00 in0.0 mm
02:00 AM 44.3°F6.8°C 43.2°F6.2°C 96% Calm Calm -- 29.99 in1015.6 mb - 0.00 in0.0 mm 0.00 in0.0 mm
01:50 AM 44.5°F6.9°C 43.7°F6.5°C 97% Calm Calm -- 29.98 in1015.2 mb - 0.00 in0.0 mm 0.00 in0.0 mm
01:40 AM 44.3°F6.8°C 43.5°F6.4°C 97% Calm Calm -- 29.98 in1015.2 mb - 0.00 in0.0 mm 0.00 in0.0 mm
01:30 AM 43.8°F6.6°C 42.7°F5.9°C 96% Calm Calm -- 29.99 in1015.6 mb - 0.00 in0.0 mm 0.00 in0.0 mm
01:20 AM 43.6°F6.4°C 42.5°F5.8°C 96% Calm Calm -- 29.99 in1015.6 mb - 0.00 in0.0 mm 0.00 in0.0 mm
01:10 AM 43.6°F6.4°C 42.5°F5.8°C 96% Calm Calm -- 29.99 in1015.6 mb - 0.00 in0.0 mm 0.00 in0.0 mm
01:00 AM 43.7°F6.5°C 42.6°F5.9°C 96% Calm Calm -- 29.98 in1015.2 mb - 0.00 in0.0 mm 0.00 in0.0 mm
12:50 AM 43.7°F6.5°C 42.6°F5.9°C 96% Calm Calm -- 29.98 in1015.2 mb - 0.00 in0.0 mm 0.00 in0.0 mm
12:40 AM 43.6°F6.4°C 42.5°F5.8°C 96% Calm Calm -- 29.98 in1015.2 mb - 0.00 in0.0 mm 0.00 in0.0 mm
12:30 AM 43.4°F6.3°C 42.6°F5.9°C 97% Calm Calm -- 29.98 in1015.2 mb - 0.00 in0.0 mm 0.00 in0.0 mm
12:20 AM 43.1°F6.2°C 42.0°F5.6°C 96% Calm Calm -- 29.98 in1015.2 mb - 0.00 in0.0 mm 0.00 in0.0 mm
12:10 AM 42.8°F6.0°C 41.7°F5.4°C 96% Calm Calm -- 29.98 in1015.2 mb - 0.00 in0.0 mm 0.00 in0.0 mm
12:00 AM 42.6°F5.9°C 41.6°F5.3°C 96% Calm Calm -- 29.99 in1015.6 mb - 0.00 in0.0 mm 0.00 in0.0 mm